Saint Louis, Canada
Current Conditions -  °F | °C
As of 1:00 AM on Saturday 25 Oct 2014 (Local Time) from CYPA Reporting Station
Few Clouds Few Clouds  
Wind Chill: 32°   Ceiling: Unl
Heat Index: 39°   Visibility: 15mi
Dew Point: 28°   Wind: 10mph
Humidity: 65%   Direction: 270°W
Pressure: 29.89"   Gusts: NA
Location:  52.92°N, 105.8°W
Report Text: CYPA 250700Z 27009KT 15SM FEW065 04/M02 A2989 RMK SC2 SLP139
Loading
Personal Weather Stations






























Interactive Weather Map
Tropical Storm Tracking
New forecast layout! Learn more

10-Day Weather Forecast

Advertisements
Track Severe Weather on mobile